createdAt,value
2023-05-21T00:01:03.167Z,5.45
2023-05-21T00:04:08.884Z,5.57
2023-05-21T00:07:12.638Z,5.72
2023-05-21T00:10:15.130Z,5.30
2023-05-21T00:13:17.613Z,5.82
2023-05-21T00:16:20.026Z,5.30
2023-05-21T00:19:22.634Z,5.38
2023-05-21T00:22:25.160Z,5.85
2023-05-21T00:25:27.573Z,5.73
2023-05-21T00:28:29.991Z,5.63
2023-05-21T00:31:32.385Z,5.90
2023-05-21T00:34:36.349Z,5.78
2023-05-21T00:37:38.893Z,5.50
2023-05-21T00:40:41.448Z,5.80
2023-05-21T00:43:44.696Z,5.45
2023-05-21T00:46:49.007Z,5.57
2023-05-21T00:49:53.394Z,6.10
2023-05-21T00:52:56.637Z,5.03
2023-05-21T00:55:59.168Z,5.40
2023-05-21T00:59:05.538Z,5.78
2023-05-21T01:02:09.609Z,5.65
2023-05-21T01:05:12.250Z,5.60
2023-05-21T01:08:15.222Z,5.35
2023-05-21T01:11:18.820Z,5.40
2023-05-21T01:14:24.257Z,5.97
2023-05-21T01:17:28.449Z,4.73
2023-05-21T01:20:32.316Z,5.63
2023-05-21T01:23:34.810Z,5.53
2023-05-21T01:26:39.755Z,6.03
2023-05-21T01:29:42.543Z,6.35
2023-05-21T01:33:04.162Z,5.85
2023-05-21T01:36:24.174Z,5.80
2023-05-21T01:39:32.537Z,5.55
2023-05-21T01:42:38.358Z,6.15
2023-05-21T01:45:43.764Z,5.60
2023-05-21T01:48:47.342Z,5.50
2023-05-21T01:51:50.065Z,5.90
2023-05-21T01:54:54.392Z,5.45
2023-05-21T01:57:57.134Z,6.00
2023-05-21T02:00:59.742Z,5.13
2023-05-21T02:04:02.203Z,5.63
2023-05-21T02:07:04.835Z,6.10
2023-05-21T02:10:07.927Z,6.03
2023-05-21T02:13:10.627Z,5.90
2023-05-21T02:16:14.773Z,5.72
2023-05-21T02:19:17.764Z,5.20
2023-05-21T02:22:20.275Z,6.07
2023-05-21T02:25:22.826Z,5.88
2023-05-21T02:28:25.477Z,5.90
2023-05-21T02:31:27.902Z,5.93
2023-05-21T02:34:35.080Z,6.38
2023-05-21T02:37:38.010Z,6.03
2023-05-21T02:40:40.531Z,6.25
2023-05-21T02:43:43.763Z,6.15
2023-05-21T02:46:46.594Z,6.07
2023-05-21T02:49:51.541Z,7.33
2023-05-21T02:52:53.997Z,7.10
2023-05-21T02:55:56.670Z,6.35
2023-05-21T02:58:59.047Z,6.33
2023-05-21T03:02:01.649Z,5.80
2023-05-21T03:05:05.305Z,6.10
2023-05-21T03:08:09.200Z,5.97
2023-05-21T03:11:11.620Z,7.07
2023-05-21T03:14:14.564Z,6.70
2023-05-21T03:17:18.095Z,7.25
2023-05-21T03:20:20.506Z,6.97
2023-05-21T03:23:23.436Z,7.55
2023-05-21T03:26:32.512Z,7.32
2023-05-21T03:29:36.213Z,6.70
2023-05-21T03:32:41.446Z,7.00
2023-05-21T03:35:44.462Z,6.93
2023-05-21T03:38:46.952Z,6.80
2023-05-21T03:41:49.374Z,6.93
2023-05-21T03:44:59.077Z,7.20
2023-05-21T03:48:21.487Z,8.20
2023-05-21T03:51:24.912Z,8.20
2023-05-21T03:54:27.718Z,7.40
2023-05-21T03:57:34.538Z,6.97
2023-05-21T04:00:40.675Z,7.90
2023-05-21T04:03:43.477Z,8.23
2023-05-21T04:06:46.445Z,7.82
2023-05-21T04:09:48.850Z,8.13
2023-05-21T04:12:52.482Z,7.30
2023-05-21T04:15:55.869Z,7.32
2023-05-21T04:18:59.065Z,7.22
2023-05-21T04:22:03.203Z,7.20
2023-05-21T04:25:06.278Z,6.70
2023-05-21T04:28:11.482Z,6.25
2023-05-21T04:31:14.101Z,6.47
2023-05-21T04:34:19.988Z,7.05
2023-05-21T04:37:24.736Z,5.88
2023-05-21T04:40:27.149Z,5.20
2023-05-21T04:43:30.106Z,4.88
2023-05-21T04:46:35.033Z,4.82
2023-05-21T04:49:37.800Z,4.72
2023-05-21T04:52:42.467Z,4.50
2023-05-21T04:55:45.073Z,4.55
2023-05-21T04:58:48.008Z,4.95
2023-05-21T05:01:50.600Z,5.00
2023-05-21T05:04:53.047Z,4.53
2023-05-21T05:07:56.402Z,4.30
2023-05-21T05:10:58.774Z,3.88
2023-05-21T05:14:01.610Z,4.90
2023-05-21T05:17:05.781Z,4.50
2023-05-21T05:20:08.874Z,4.45
2023-05-21T05:23:11.434Z,4.50
2023-05-21T05:26:14.344Z,4.20
2023-05-21T05:29:16.829Z,4.28
2023-05-21T05:32:19.556Z,4.50
2023-05-21T05:35:22.058Z,4.10
2023-05-21T05:38:24.536Z,4.45
2023-05-21T05:41:27.217Z,4.72
2023-05-21T05:44:31.247Z,4.28
2023-05-21T05:47:34.045Z,4.20
2023-05-21T05:50:36.609Z,4.30
2023-05-21T05:53:39.116Z,3.57
2023-05-21T05:56:41.496Z,4.30
2023-05-21T05:59:46.935Z,3.58
2023-05-21T06:02:50.898Z,4.00
2023-05-21T06:05:53.472Z,3.80
2023-05-21T06:08:56.100Z,3.58
2023-05-21T06:11:59.436Z,4.53
2023-05-21T06:15:01.935Z,3.72
2023-05-21T06:18:05.169Z,3.80
2023-05-21T06:21:07.693Z,3.65
2023-05-21T06:24:10.983Z,3.80
2023-05-21T06:27:14.034Z,4.13
2023-05-21T06:30:17.048Z,3.65
2023-05-21T06:33:19.804Z,4.10
2023-05-21T06:36:22.306Z,4.10
2023-05-21T06:39:24.939Z,4.30
2023-05-21T06:42:27.410Z,3.90
2023-05-21T06:45:49.901Z,3.80
2023-05-21T06:49:14.065Z,3.92
2023-05-21T06:52:16.806Z,3.88
2023-05-21T06:55:20.020Z,3.90
2023-05-21T06:58:45.621Z,3.60
2023-05-21T07:01:48.135Z,3.58
2023-05-21T07:04:50.631Z,3.80
2023-05-21T07:07:53.026Z,3.83
2023-05-21T07:10:56.500Z,3.60
2023-05-21T07:14:03.929Z,3.47
2023-05-21T07:17:08.723Z,4.00
2023-05-21T07:20:12.681Z,3.90
2023-05-21T07:23:17.317Z,3.67
2023-05-21T07:26:21.623Z,3.73
2023-05-21T07:29:24.160Z,3.22
2023-05-21T07:32:29.261Z,3.00
2023-05-21T07:35:32.116Z,4.00
2023-05-21T07:38:34.730Z,3.58
2023-05-21T07:41:37.347Z,3.45
2023-05-21T07:44:43.083Z,3.60
2023-05-21T07:47:46.920Z,4.05
2023-05-21T07:50:52.546Z,3.30
2023-05-21T07:53:56.314Z,3.70
2023-05-21T07:57:06.021Z,3.00
2023-05-21T08:00:24.840Z,3.85
2023-05-21T08:03:30.950Z,3.38
2023-05-21T08:06:34.113Z,3.93
2023-05-21T08:09:36.839Z,3.65
2023-05-21T08:12:39.512Z,4.05
2023-05-21T08:15:43.112Z,3.65
2023-05-21T08:18:45.983Z,3.47
2023-05-21T08:21:49.267Z,3.10
2023-05-21T08:24:52.984Z,4.30
2023-05-21T08:27:56.099Z,3.70
2023-05-21T08:30:58.680Z,3.55
2023-05-21T08:34:01.311Z,3.88
2023-05-21T08:37:15.222Z,3.90
2023-05-21T08:40:50.434Z,3.67
2023-05-21T08:43:57.675Z,4.18
2023-05-21T08:47:02.903Z,4.20
2023-05-21T08:50:08.675Z,3.72
2023-05-21T08:53:19.833Z,4.25
2023-05-21T08:56:35.249Z,4.13
2023-05-21T08:59:40.145Z,3.53
2023-05-21T09:02:47.230Z,3.80
2023-05-21T09:05:55.187Z,3.55
2023-05-21T09:09:04.826Z,4.37
2023-05-21T09:12:20.047Z,3.65
2023-05-21T09:15:22.731Z,4.05
2023-05-21T09:18:27.592Z,4.35
2023-05-21T09:21:51.083Z,3.97
2023-05-21T09:24:55.701Z,3.83
2023-05-21T09:28:01.706Z,3.80
2023-05-21T09:31:04.364Z,4.03
2023-05-21T09:34:06.818Z,3.53
2023-05-21T09:37:23.715Z,4.07
2023-05-21T09:40:29.585Z,3.92
2023-05-21T09:43:32.303Z,3.95
2023-05-21T09:46:42.661Z,3.92
2023-05-21T09:49:45.668Z,4.13
2023-05-21T09:52:55.726Z,3.80
2023-05-21T09:55:58.376Z,4.45
2023-05-21T09:59:04.476Z,3.88
2023-05-21T10:02:24.026Z,4.50
2023-05-21T10:05:30.689Z,4.43
2023-05-21T10:08:36.762Z,4.45
2023-05-21T10:11:39.954Z,4.22
2023-05-21T10:14:46.923Z,4.38
2023-05-21T10:17:49.881Z,4.03
2023-05-21T10:20:53.262Z,3.83
2023-05-21T10:23:57.457Z,4.60
2023-05-21T10:27:01.877Z,3.85
2023-05-21T10:30:06.258Z,4.80
2023-05-21T10:33:09.322Z,4.50
2023-05-21T10:36:12.298Z,4.57
2023-05-21T10:39:19.866Z,4.35
2023-05-21T10:43:04.047Z,4.40
2023-05-21T10:46:34.546Z,4.10
2023-05-21T10:50:21.131Z,3.87
2023-05-21T10:53:51.122Z,4.63
2023-05-21T10:57:12.079Z,4.50
2023-05-21T11:00:18.302Z,4.47
2023-05-21T11:03:22.146Z,4.35
2023-05-21T11:06:28.144Z,4.25
2023-05-21T11:09:30.665Z,4.60
2023-05-21T11:12:34.968Z,4.23
2023-05-21T11:16:16.759Z,4.03
2023-05-21T11:19:19.469Z,3.78
2023-05-21T11:22:23.971Z,4.17
2023-05-21T11:25:27.541Z,4.40
2023-05-21T11:28:34.209Z,4.50
2023-05-21T11:31:40.319Z,4.50
2023-05-21T11:34:48.713Z,4.60
2023-05-21T11:37:54.108Z,3.90
2023-05-21T11:41:03.245Z,4.00
2023-05-21T11:44:08.825Z,3.83
2023-05-21T11:47:15.796Z,3.65
2023-05-21T11:50:18.636Z,4.50
2023-05-21T11:53:21.089Z,4.38
2023-05-21T11:56:24.500Z,6.17
2023-05-21T11:59:26.867Z,4.10
2023-05-21T12:02:32.823Z,4.00
2023-05-21T12:05:46.492Z,4.22
2023-05-21T12:08:52.526Z,3.88
2023-05-21T12:11:55.101Z,3.92
2023-05-21T12:14:58.413Z,4.47
2023-05-21T12:18:01.337Z,3.90
2023-05-21T12:21:04.930Z,4.57
2023-05-21T12:24:07.311Z,3.85
2023-05-21T12:27:13.299Z,3.97
2023-05-21T12:30:15.919Z,4.15
2023-05-21T12:33:18.884Z,3.67
2023-05-21T12:36:31.930Z,3.78
2023-05-21T12:39:41.685Z,3.77
2023-05-21T12:42:44.610Z,3.40
2023-05-21T12:45:47.193Z,3.95
2023-05-21T12:48:58.388Z,3.83
2023-05-21T12:52:03.110Z,3.72
2023-05-21T12:55:07.134Z,3.58
2023-05-21T12:58:14.160Z,3.35
2023-05-21T13:01:16.569Z,3.73
2023-05-21T13:04:20.264Z,3.30
2023-05-21T13:07:23.161Z,3.38
2023-05-21T13:10:25.553Z,4.03
2023-05-21T13:13:27.966Z,3.55
2023-05-21T13:16:30.569Z,3.35
2023-05-21T13:19:33.070Z,3.33
2023-05-21T13:22:43.674Z,2.80
2023-05-21T13:25:46.124Z,3.10
2023-05-21T13:28:48.494Z,2.90
2023-05-21T13:31:50.946Z,2.92
2023-05-21T13:34:53.475Z,3.20
2023-05-21T13:37:55.869Z,3.28
2023-05-21T13:40:58.305Z,3.22
2023-05-21T13:44:00.957Z,2.77
2023-05-21T13:47:04.205Z,2.60
2023-05-21T13:50:07.394Z,2.67
2023-05-21T13:53:09.867Z,3.00
2023-05-21T13:56:12.585Z,2.38
2023-05-21T13:59:15.007Z,2.60
2023-05-21T14:02:17.550Z,2.65
2023-05-21T14:05:20.066Z,2.65
2023-05-21T14:08:23.677Z,2.97
2023-05-21T14:11:27.544Z,2.88
2023-05-21T14:14:30.048Z,2.40
2023-05-21T14:17:32.501Z,2.47
2023-05-21T14:20:34.930Z,1.92
2023-05-21T14:23:37.330Z,2.50
2023-05-21T14:26:42.635Z,2.42
2023-05-21T14:29:45.051Z,2.50
2023-05-21T14:32:47.449Z,2.72
2023-05-21T14:35:49.869Z,2.30
2023-05-21T14:38:52.274Z,2.25
2023-05-21T14:41:54.804Z,2.50
2023-05-21T14:44:58.885Z,2.87
2023-05-21T14:48:08.308Z,2.45
2023-05-21T14:51:10.838Z,2.63
2023-05-21T14:54:13.778Z,2.83
2023-05-21T14:57:16.185Z,2.30
2023-05-21T15:00:18.736Z,2.70
2023-05-21T15:03:21.275Z,2.95
2023-05-21T15:06:24.822Z,2.65
2023-05-21T15:09:27.246Z,2.70
2023-05-21T15:12:29.658Z,2.25
2023-05-21T15:15:32.079Z,2.20
2023-05-21T15:18:34.494Z,2.70
2023-05-21T15:21:37.053Z,2.22
2023-05-21T15:24:39.419Z,2.37
2023-05-21T15:27:41.889Z,2.38
2023-05-21T15:30:44.282Z,2.15
2023-05-21T15:33:46.729Z,2.50
2023-05-21T15:36:49.104Z,2.20
2023-05-21T15:39:53.330Z,2.40
2023-05-21T15:42:55.874Z,2.55
2023-05-21T15:45:58.484Z,2.57
2023-05-21T15:49:00.866Z,2.35
2023-05-21T15:52:03.345Z,1.95
2023-05-21T15:55:06.046Z,2.10
2023-05-21T15:58:08.549Z,2.33
2023-05-21T16:01:11.009Z,2.30
2023-05-21T16:04:13.622Z,2.50
2023-05-21T16:07:16.035Z,2.22
2023-05-21T16:10:18.595Z,2.10
2023-05-21T16:13:21.199Z,2.60
2023-05-21T16:16:24.873Z,1.80
2023-05-21T16:19:27.443Z,2.30
2023-05-21T16:22:32.487Z,2.00
2023-05-21T16:25:38.232Z,1.90
2023-05-21T16:28:43.837Z,2.10
2023-05-21T16:31:47.515Z,2.17
2023-05-21T16:34:49.995Z,3.08
2023-05-21T16:37:52.486Z,2.40
2023-05-21T16:40:54.934Z,2.40
2023-05-21T16:43:57.299Z,2.60
2023-05-21T16:47:00.429Z,2.10
2023-05-21T16:50:05.925Z,2.63
2023-05-21T16:53:09.844Z,2.40
2023-05-21T16:56:12.257Z,2.10
2023-05-21T16:59:14.669Z,2.00
2023-05-21T17:02:17.170Z,2.33
2023-05-21T17:05:20.921Z,2.03
2023-05-21T17:08:23.300Z,2.35
2023-05-21T17:11:25.786Z,2.63
2023-05-21T17:14:34.326Z,2.15
2023-05-21T17:17:37.837Z,2.10
2023-05-21T17:20:40.448Z,2.60
2023-05-21T17:23:42.981Z,2.22
2023-05-21T17:26:45.399Z,1.80
2023-05-21T17:29:47.776Z,1.92
2023-05-21T17:32:50.148Z,2.30
2023-05-21T17:35:52.562Z,2.17
2023-05-21T17:38:55.113Z,1.95
2023-05-21T17:41:57.791Z,1.90
2023-05-21T17:45:01.437Z,2.03
2023-05-21T17:48:04.217Z,3.43
2023-05-21T17:51:06.754Z,3.25
2023-05-21T17:54:09.478Z,1.45
2023-05-21T17:57:12.148Z,2.10
2023-05-21T18:00:14.892Z,1.73
2023-05-21T18:03:17.219Z,1.80
2023-05-21T18:06:19.715Z,1.92
2023-05-21T18:09:22.252Z,2.00
2023-05-21T18:12:24.788Z,2.45
2023-05-21T18:15:27.260Z,2.30
2023-05-21T18:18:29.692Z,1.97
2023-05-21T18:21:34.647Z,1.63
2023-05-21T18:24:38.171Z,1.92
2023-05-21T18:27:40.782Z,2.20
2023-05-21T18:30:43.182Z,1.88
2023-05-21T18:33:45.630Z,1.80
2023-05-21T18:36:48.311Z,1.88
2023-05-21T18:39:51.006Z,1.85
2023-05-21T18:42:53.823Z,1.95
2023-05-21T18:45:56.278Z,1.95
2023-05-21T18:49:01.561Z,1.90
2023-05-21T18:52:06.169Z,1.52
2023-05-21T18:55:09.255Z,1.80
2023-05-21T18:58:11.638Z,1.80
2023-05-21T19:01:14.110Z,2.10
2023-05-21T19:04:17.652Z,1.40
2023-05-21T19:07:20.063Z,1.60
2023-05-21T19:10:22.558Z,2.00
2023-05-21T19:13:25.131Z,1.58
2023-05-21T19:16:27.907Z,1.67
2023-05-21T19:19:30.484Z,1.50
2023-05-21T19:22:33.093Z,1.83
2023-05-21T19:25:35.723Z,1.85
2023-05-21T19:28:38.251Z,2.10
2023-05-21T19:31:40.925Z,1.70
2023-05-21T19:34:43.443Z,1.80
2023-05-21T19:37:45.833Z,1.45
2023-05-21T19:40:49.098Z,1.63
2023-05-21T19:43:51.544Z,1.77
2023-05-21T19:46:54.633Z,1.75
2023-05-21T19:49:57.050Z,1.60
2023-05-21T19:52:59.491Z,1.70
2023-05-21T19:56:01.945Z,1.58
2023-05-21T19:59:04.415Z,1.70
2023-05-21T20:02:07.201Z,1.80
2023-05-21T20:05:09.987Z,1.80
2023-05-21T20:08:12.760Z,1.67
2023-05-21T20:11:15.590Z,1.70
2023-05-21T20:14:18.021Z,2.00
2023-05-21T20:17:20.806Z,1.90
2023-05-21T20:20:23.223Z,1.80
2023-05-21T20:23:25.707Z,1.67
2023-05-21T20:26:28.136Z,1.73
2023-05-21T20:29:30.578Z,1.70
2023-05-21T20:32:32.980Z,1.58
2023-05-21T20:35:35.506Z,1.83
2023-05-21T20:38:38.327Z,1.80
2023-05-21T20:41:44.653Z,2.08
2023-05-21T20:44:47.247Z,1.60
2023-05-21T20:47:49.963Z,1.58
2023-05-21T20:50:52.902Z,1.63
2023-05-21T20:53:55.614Z,1.95
2023-05-21T20:56:59.594Z,1.70
2023-05-21T21:00:02.035Z,2.00
2023-05-21T21:03:05.194Z,1.65
2023-05-21T21:06:09.798Z,2.75
2023-05-21T21:09:12.611Z,1.45
2023-05-21T21:12:25.954Z,1.88
2023-05-21T21:15:29.146Z,2.10
2023-05-21T21:18:31.554Z,1.90
2023-05-21T21:21:33.983Z,1.93
2023-05-21T21:24:36.358Z,2.03
2023-05-21T21:27:38.787Z,1.55
2023-05-21T21:30:41.372Z,1.70
2023-05-21T21:33:43.938Z,1.90
2023-05-21T21:36:46.689Z,2.17
2023-05-21T21:39:49.108Z,2.33
2023-05-21T21:42:51.485Z,1.73
2023-05-21T21:45:53.968Z,1.80
2023-05-21T21:48:56.486Z,1.88
2023-05-21T21:51:58.964Z,1.67
2023-05-21T21:55:01.310Z,1.92
2023-05-21T21:58:03.803Z,1.95
2023-05-21T22:01:06.400Z,2.00
2023-05-21T22:04:09.025Z,1.60
2023-05-21T22:07:18.087Z,1.63
2023-05-21T22:10:21.341Z,1.75
2023-05-21T22:13:24.591Z,1.77
2023-05-21T22:16:28.345Z,1.90
2023-05-21T22:19:32.815Z,1.67
2023-05-21T22:22:35.422Z,2.20
2023-05-21T22:25:37.920Z,1.73
2023-05-21T22:28:40.436Z,1.85
2023-05-21T22:31:42.857Z,1.97
2023-05-21T22:34:45.288Z,1.80
2023-05-21T22:37:47.774Z,2.10
2023-05-21T22:40:50.382Z,1.80
2023-05-21T22:43:52.798Z,1.60
2023-05-21T22:46:56.600Z,3.03
2023-05-21T22:50:01.455Z,1.90
2023-05-21T22:53:04.047Z,1.80
2023-05-21T22:56:06.863Z,2.20
2023-05-21T22:59:09.279Z,1.50
2023-05-21T23:02:12.687Z,2.10
2023-05-21T23:05:15.486Z,1.60
2023-05-21T23:08:17.908Z,1.70
2023-05-21T23:11:20.946Z,2.10
2023-05-21T23:14:23.355Z,2.13
2023-05-21T23:17:25.855Z,1.73
2023-05-21T23:20:28.237Z,2.40
2023-05-21T23:23:30.659Z,1.90
2023-05-21T23:26:33.449Z,1.85
2023-05-21T23:29:36.103Z,1.80
2023-05-21T23:32:38.833Z,1.90
2023-05-21T23:35:41.292Z,1.40
2023-05-21T23:38:43.963Z,1.60
2023-05-21T23:41:46.372Z,1.70
2023-05-21T23:44:48.735Z,1.80
2023-05-21T23:47:52.042Z,1.98
2023-05-21T23:50:54.742Z,2.15
2023-05-21T23:53:57.161Z,1.90
2023-05-21T23:56:59.624Z,1.80
